sensor_id;sensor_type;location;lat;lon;timestamp;P1;durP1;ratioP1;P2;durP2;ratioP2
12218;SDS011;6172;42.646;23.344;2023-12-07T00:01:48;32.20;;;18.37;;
12218;SDS011;6172;42.646;23.344;2023-12-07T00:04:21;36.27;;;19.10;;
12218;SDS011;6172;42.646;23.344;2023-12-07T00:06:48;33.37;;;19.17;;
12218;SDS011;6172;42.646;23.344;2023-12-07T00:09:15;36.20;;;19.40;;
12218;SDS011;6172;42.646;23.344;2023-12-07T00:11:42;35.23;;;19.30;;
12218;SDS011;6172;42.646;23.344;2023-12-07T00:14:09;37.00;;;20.37;;
12218;SDS011;6172;42.646;23.344;2023-12-07T00:16:36;30.37;;;17.33;;
12218;SDS011;6172;42.646;23.344;2023-12-07T00:19:03;31.73;;;18.03;;
12218;SDS011;6172;42.646;23.344;2023-12-07T00:21:32;32.07;;;17.80;;
12218;SDS011;6172;42.646;23.344;2023-12-07T00:23:59;32.37;;;18.30;;
12218;SDS011;6172;42.646;23.344;2023-12-07T00:26:26;32.63;;;18.00;;
12218;SDS011;6172;42.646;23.344;2023-12-07T00:28:53;31.10;;;16.63;;
12218;SDS011;6172;42.646;23.344;2023-12-07T00:31:20;26.93;;;16.53;;
12218;SDS011;6172;42.646;23.344;2023-12-07T00:33:47;30.60;;;17.13;;
12218;SDS011;6172;42.646;23.344;2023-12-07T00:36:14;30.40;;;17.40;;
12218;SDS011;6172;42.646;23.344;2023-12-07T00:38:46;34.30;;;18.17;;
12218;SDS011;6172;42.646;23.344;2023-12-07T00:41:16;32.70;;;17.77;;
12218;SDS011;6172;42.646;23.344;2023-12-07T00:43:43;32.27;;;16.93;;
12218;SDS011;6172;42.646;23.344;2023-12-07T00:46:10;32.63;;;18.20;;
12218;SDS011;6172;42.646;23.344;2023-12-07T00:48:37;35.27;;;18.90;;
12218;SDS011;6172;42.646;23.344;2023-12-07T00:51:04;34.90;;;18.97;;
12218;SDS011;6172;42.646;23.344;2023-12-07T00:53:32;35.83;;;18.90;;
12218;SDS011;6172;42.646;23.344;2023-12-07T00:56:00;34.30;;;19.30;;
12218;SDS011;6172;42.646;23.344;2023-12-07T00:58:29;35.77;;;19.33;;
12218;SDS011;6172;42.646;23.344;2023-12-07T01:00:56;33.97;;;19.70;;
12218;SDS011;6172;42.646;23.344;2023-12-07T01:03:23;31.43;;;18.77;;
12218;SDS011;6172;42.646;23.344;2023-12-07T01:05:50;36.03;;;19.03;;
12218;SDS011;6172;42.646;23.344;2023-12-07T01:08:17;33.23;;;18.67;;
12218;SDS011;6172;42.646;23.344;2023-12-07T01:10:44;33.77;;;19.13;;
12218;SDS011;6172;42.646;23.344;2023-12-07T01:13:12;38.20;;;20.50;;
12218;SDS011;6172;42.646;23.344;2023-12-07T01:15:39;39.03;;;20.90;;
12218;SDS011;6172;42.646;23.344;2023-12-07T01:18:06;37.27;;;19.37;;
12218;SDS011;6172;42.646;23.344;2023-12-07T01:20:33;35.20;;;19.73;;
12218;SDS011;6172;42.646;23.344;2023-12-07T01:23:00;38.93;;;20.70;;
12218;SDS011;6172;42.646;23.344;2023-12-07T01:25:28;37.50;;;21.03;;
12218;SDS011;6172;42.646;23.344;2023-12-07T01:27:55;36.43;;;20.33;;
12218;SDS011;6172;42.646;23.344;2023-12-07T01:30:23;40.83;;;20.37;;
12218;SDS011;6172;42.646;23.344;2023-12-07T01:32:50;38.83;;;20.43;;
12218;SDS011;6172;42.646;23.344;2023-12-07T01:35:17;39.70;;;20.87;;
12218;SDS011;6172;42.646;23.344;2023-12-07T01:37:44;33.77;;;19.93;;
12218;SDS011;6172;42.646;23.344;2023-12-07T01:40:11;37.40;;;20.07;;
12218;SDS011;6172;42.646;23.344;2023-12-07T01:42:40;38.13;;;20.10;;
12218;SDS011;6172;42.646;23.344;2023-12-07T01:45:15;33.03;;;19.00;;
12218;SDS011;6172;42.646;23.344;2023-12-07T01:47:44;40.20;;;21.20;;
12218;SDS011;6172;42.646;23.344;2023-12-07T01:50:11;37.47;;;20.03;;
12218;SDS011;6172;42.646;23.344;2023-12-07T01:52:43;36.97;;;20.13;;
12218;SDS011;6172;42.646;23.344;2023-12-07T01:55:12;37.03;;;19.50;;
12218;SDS011;6172;42.646;23.344;2023-12-07T01:57:39;39.27;;;20.80;;
12218;SDS011;6172;42.646;23.344;2023-12-07T02:00:08;37.63;;;20.43;;
12218;SDS011;6172;42.646;23.344;2023-12-07T02:02:36;40.10;;;21.13;;
12218;SDS011;6172;42.646;23.344;2023-12-07T02:05:05;38.03;;;20.77;;
12218;SDS011;6172;42.646;23.344;2023-12-07T02:07:33;40.87;;;20.73;;
12218;SDS011;6172;42.646;23.344;2023-12-07T02:10:00;37.03;;;20.10;;
12218;SDS011;6172;42.646;23.344;2023-12-07T02:12:28;37.67;;;21.30;;
12218;SDS011;6172;42.646;23.344;2023-12-07T02:14:55;32.90;;;19.03;;
12218;SDS011;6172;42.646;23.344;2023-12-07T02:17:24;33.83;;;19.87;;
12218;SDS011;6172;42.646;23.344;2023-12-07T02:19:56;35.17;;;19.07;;
12218;SDS011;6172;42.646;23.344;2023-12-07T02:22:32;33.40;;;18.83;;
12218;SDS011;6172;42.646;23.344;2023-12-07T02:25:06;36.23;;;20.67;;
12218;SDS011;6172;42.646;23.344;2023-12-07T02:27:37;33.83;;;18.60;;
12218;SDS011;6172;42.646;23.344;2023-12-07T02:30:05;34.80;;;19.00;;
12218;SDS011;6172;42.646;23.344;2023-12-07T02:32:33;33.43;;;19.40;;
12218;SDS011;6172;42.646;23.344;2023-12-07T02:35:00;35.23;;;20.60;;
12218;SDS011;6172;42.646;23.344;2023-12-07T02:37:28;37.43;;;20.07;;
12218;SDS011;6172;42.646;23.344;2023-12-07T02:40:02;36.60;;;20.27;;
12218;SDS011;6172;42.646;23.344;2023-12-07T02:42:37;39.13;;;20.27;;
12218;SDS011;6172;42.646;23.344;2023-12-07T02:45:08;36.17;;;19.37;;
12218;SDS011;6172;42.646;23.344;2023-12-07T02:47:36;36.70;;;19.73;;
12218;SDS011;6172;42.646;23.344;2023-12-07T02:50:04;36.07;;;20.00;;
12218;SDS011;6172;42.646;23.344;2023-12-07T02:52:32;33.93;;;19.30;;
12218;SDS011;6172;42.646;23.344;2023-12-07T02:54:59;33.90;;;19.87;;
12218;SDS011;6172;42.646;23.344;2023-12-07T02:57:27;37.10;;;19.33;;
12218;SDS011;6172;42.646;23.344;2023-12-07T02:59:56;36.53;;;20.03;;
12218;SDS011;6172;42.646;23.344;2023-12-07T03:02:23;34.40;;;19.23;;
12218;SDS011;6172;42.646;23.344;2023-12-07T03:05:00;39.07;;;20.10;;
12218;SDS011;6172;42.646;23.344;2023-12-07T03:07:27;35.53;;;19.90;;
12218;SDS011;6172;42.646;23.344;2023-12-07T03:09:54;36.90;;;20.40;;
12218;SDS011;6172;42.646;23.344;2023-12-07T03:12:21;37.23;;;20.60;;
12218;SDS011;6172;42.646;23.344;2023-12-07T03:14:48;35.13;;;20.17;;
12218;SDS011;6172;42.646;23.344;2023-12-07T03:17:16;36.77;;;19.80;;
12218;SDS011;6172;42.646;23.344;2023-12-07T03:19:43;37.67;;;20.97;;
12218;SDS011;6172;42.646;23.344;2023-12-07T03:22:10;33.57;;;19.93;;
12218;SDS011;6172;42.646;23.344;2023-12-07T03:24:38;38.00;;;20.53;;
12218;SDS011;6172;42.646;23.344;2023-12-07T03:27:06;38.50;;;20.13;;
12218;SDS011;6172;42.646;23.344;2023-12-07T03:29:36;36.77;;;20.23;;
12218;SDS011;6172;42.646;23.344;2023-12-07T03:32:04;33.43;;;19.07;;
12218;SDS011;6172;42.646;23.344;2023-12-07T03:34:33;33.80;;;18.87;;
12218;SDS011;6172;42.646;23.344;2023-12-07T03:37:00;34.10;;;19.53;;
12218;SDS011;6172;42.646;23.344;2023-12-07T03:39:28;37.83;;;19.87;;
12218;SDS011;6172;42.646;23.344;2023-12-07T03:42:01;33.53;;;18.03;;
12218;SDS011;6172;42.646;23.344;2023-12-07T03:44:45;37.00;;;19.93;;
12218;SDS011;6172;42.646;23.344;2023-12-07T03:47:12;35.07;;;19.03;;
12218;SDS011;6172;42.646;23.344;2023-12-07T03:49:41;35.17;;;18.80;;
12218;SDS011;6172;42.646;23.344;2023-12-07T03:52:11;35.67;;;18.87;;
12218;SDS011;6172;42.646;23.344;2023-12-07T03:54:38;31.40;;;17.90;;
12218;SDS011;6172;42.646;23.344;2023-12-07T03:57:05;33.17;;;18.87;;
12218;SDS011;6172;42.646;23.344;2023-12-07T03:59:32;33.57;;;18.17;;
12218;SDS011;6172;42.646;23.344;2023-12-07T04:01:59;34.57;;;18.50;;
12218;SDS011;6172;42.646;23.344;2023-12-07T04:04:25;34.13;;;18.53;;
12218;SDS011;6172;42.646;23.344;2023-12-07T04:06:54;33.27;;;17.57;;
12218;SDS011;6172;42.646;23.344;2023-12-07T04:09:21;36.23;;;18.57;;
12218;SDS011;6172;42.646;23.344;2023-12-07T04:11:48;33.00;;;18.10;;
12218;SDS011;6172;42.646;23.344;2023-12-07T04:14:15;31.63;;;17.87;;
12218;SDS011;6172;42.646;23.344;2023-12-07T04:16:42;30.07;;;16.77;;
12218;SDS011;6172;42.646;23.344;2023-12-07T04:19:09;30.17;;;17.23;;
12218;SDS011;6172;42.646;23.344;2023-12-07T04:21:36;32.13;;;17.50;;
12218;SDS011;6172;42.646;23.344;2023-12-07T04:24:05;32.23;;;17.33;;
12218;SDS011;6172;42.646;23.344;2023-12-07T04:26:35;32.70;;;17.10;;
12218;SDS011;6172;42.646;23.344;2023-12-07T04:29:24;32.90;;;17.60;;
12218;SDS011;6172;42.646;23.344;2023-12-07T04:31:51;29.50;;;16.93;;
12218;SDS011;6172;42.646;23.344;2023-12-07T04:34:18;28.43;;;16.23;;
12218;SDS011;6172;42.646;23.344;2023-12-07T04:36:45;27.37;;;16.43;;
12218;SDS011;6172;42.646;23.344;2023-12-07T04:39:13;30.83;;;16.80;;
12218;SDS011;6172;42.646;23.344;2023-12-07T04:41:40;29.33;;;16.63;;
12218;SDS011;6172;42.646;23.344;2023-12-07T04:44:07;28.10;;;16.70;;
12218;SDS011;6172;42.646;23.344;2023-12-07T04:46:34;29.07;;;15.63;;
12218;SDS011;6172;42.646;23.344;2023-12-07T04:49:01;28.90;;;16.27;;
12218;SDS011;6172;42.646;23.344;2023-12-07T04:51:28;30.10;;;16.83;;
12218;SDS011;6172;42.646;23.344;2023-12-07T04:53:55;30.07;;;16.77;;
12218;SDS011;6172;42.646;23.344;2023-12-07T04:56:23;30.30;;;17.03;;
12218;SDS011;6172;42.646;23.344;2023-12-07T04:58:50;27.87;;;16.40;;
12218;SDS011;6172;42.646;23.344;2023-12-07T05:01:17;29.27;;;16.70;;
12218;SDS011;6172;42.646;23.344;2023-12-07T05:03:45;25.63;;;16.13;;
12218;SDS011;6172;42.646;23.344;2023-12-07T05:06:12;32.47;;;17.17;;
12218;SDS011;6172;42.646;23.344;2023-12-07T05:08:39;26.93;;;15.13;;
12218;SDS011;6172;42.646;23.344;2023-12-07T05:11:06;21.90;;;13.30;;
12218;SDS011;6172;42.646;23.344;2023-12-07T05:13:34;25.07;;;15.17;;
12218;SDS011;6172;42.646;23.344;2023-12-07T05:16:02;25.70;;;14.97;;
12218;SDS011;6172;42.646;23.344;2023-12-07T05:18:29;21.33;;;13.53;;
12218;SDS011;6172;42.646;23.344;2023-12-07T05:20:56;23.80;;;14.67;;
12218;SDS011;6172;42.646;23.344;2023-12-07T05:23:24;25.57;;;14.93;;
12218;SDS011;6172;42.646;23.344;2023-12-07T05:25:51;23.53;;;15.10;;
12218;SDS011;6172;42.646;23.344;2023-12-07T05:28:19;27.10;;;15.47;;
12218;SDS011;6172;42.646;23.344;2023-12-07T05:30:48;26.50;;;15.97;;
12218;SDS011;6172;42.646;23.344;2023-12-07T05:33:15;27.40;;;15.23;;
12218;SDS011;6172;42.646;23.344;2023-12-07T05:35:42;25.30;;;15.70;;
12218;SDS011;6172;42.646;23.344;2023-12-07T05:38:09;24.97;;;15.33;;
12218;SDS011;6172;42.646;23.344;2023-12-07T05:40:36;26.17;;;14.97;;
12218;SDS011;6172;42.646;23.344;2023-12-07T05:43:03;28.87;;;15.30;;
12218;SDS011;6172;42.646;23.344;2023-12-07T05:45:30;24.90;;;15.33;;
12218;SDS011;6172;42.646;23.344;2023-12-07T05:47:58;26.03;;;15.43;;
12218;SDS011;6172;42.646;23.344;2023-12-07T05:50:25;25.83;;;14.77;;
12218;SDS011;6172;42.646;23.344;2023-12-07T05:52:53;25.53;;;15.80;;
12218;SDS011;6172;42.646;23.344;2023-12-07T05:55:22;24.67;;;14.97;;
12218;SDS011;6172;42.646;23.344;2023-12-07T05:57:49;24.63;;;14.67;;
12218;SDS011;6172;42.646;23.344;2023-12-07T06:00:17;24.33;;;15.27;;
12218;SDS011;6172;42.646;23.344;2023-12-07T06:02:44;23.90;;;14.90;;
12218;SDS011;6172;42.646;23.344;2023-12-07T06:05:12;25.20;;;15.13;;
12218;SDS011;6172;42.646;23.344;2023-12-07T06:07:40;25.17;;;15.13;;
12218;SDS011;6172;42.646;23.344;2023-12-07T06:10:08;26.90;;;15.27;;
12218;SDS011;6172;42.646;23.344;2023-12-07T06:12:36;25.40;;;15.37;;
12218;SDS011;6172;42.646;23.344;2023-12-07T06:15:03;25.90;;;15.00;;
12218;SDS011;6172;42.646;23.344;2023-12-07T06:17:34;24.93;;;15.00;;
12218;SDS011;6172;42.646;23.344;2023-12-07T06:20:06;25.90;;;14.97;;
12218;SDS011;6172;42.646;23.344;2023-12-07T06:22:35;22.80;;;14.10;;
12218;SDS011;6172;42.646;23.344;2023-12-07T06:25:02;25.27;;;14.47;;
12218;SDS011;6172;42.646;23.344;2023-12-07T06:27:29;24.57;;;14.93;;
12218;SDS011;6172;42.646;23.344;2023-12-07T06:30:07;23.83;;;14.70;;
12218;SDS011;6172;42.646;23.344;2023-12-07T06:32:36;25.47;;;15.33;;
12218;SDS011;6172;42.646;23.344;2023-12-07T06:35:03;22.80;;;15.00;;
12218;SDS011;6172;42.646;23.344;2023-12-07T06:37:31;23.93;;;14.90;;
12218;SDS011;6172;42.646;23.344;2023-12-07T06:43:00;21.77;;;13.03;;
12218;SDS011;6172;42.646;23.344;2023-12-07T06:45:27;22.80;;;13.63;;
12218;SDS011;6172;42.646;23.344;2023-12-07T06:47:54;22.00;;;13.17;;
12218;SDS011;6172;42.646;23.344;2023-12-07T06:50:21;23.03;;;12.87;;
12218;SDS011;6172;42.646;23.344;2023-12-07T06:52:48;22.40;;;12.67;;
12218;SDS011;6172;42.646;23.344;2023-12-07T06:55:15;22.40;;;12.60;;
12218;SDS011;6172;42.646;23.344;2023-12-07T06:57:43;22.73;;;12.77;;
12218;SDS011;6172;42.646;23.344;2023-12-07T07:00:10;20.37;;;11.83;;
12218;SDS011;6172;42.646;23.344;2023-12-07T07:02:38;20.50;;;11.67;;
12218;SDS011;6172;42.646;23.344;2023-12-07T07:05:05;17.23;;;10.77;;
12218;SDS011;6172;42.646;23.344;2023-12-07T07:07:34;17.73;;;10.03;;
12218;SDS011;6172;42.646;23.344;2023-12-07T07:10:01;14.93;;;9.20;;
12218;SDS011;6172;42.646;23.344;2023-12-07T07:12:28;17.43;;;10.33;;
12218;SDS011;6172;42.646;23.344;2023-12-07T07:14:57;16.47;;;10.23;;
12218;SDS011;6172;42.646;23.344;2023-12-07T07:17:24;17.23;;;10.17;;
12218;SDS011;6172;42.646;23.344;2023-12-07T07:19:52;15.93;;;9.87;;
12218;SDS011;6172;42.646;23.344;2023-12-07T07:22:20;16.43;;;10.43;;
12218;SDS011;6172;42.646;23.344;2023-12-07T07:24:51;16.83;;;10.87;;
12218;SDS011;6172;42.646;23.344;2023-12-07T07:27:18;16.47;;;10.90;;
12218;SDS011;6172;42.646;23.344;2023-12-07T07:29:45;17.73;;;10.97;;
12218;SDS011;6172;42.646;23.344;2023-12-07T07:32:14;19.43;;;11.60;;
12218;SDS011;6172;42.646;23.344;2023-12-07T07:34:41;17.90;;;11.03;;
12218;SDS011;6172;42.646;23.344;2023-12-07T07:37:08;17.20;;;10.50;;
12218;SDS011;6172;42.646;23.344;2023-12-07T07:39:35;21.47;;;11.30;;
12218;SDS011;6172;42.646;23.344;2023-12-07T07:42:02;16.90;;;11.00;;
12218;SDS011;6172;42.646;23.344;2023-12-07T07:44:30;16.10;;;10.87;;
12218;SDS011;6172;42.646;23.344;2023-12-07T07:46:57;17.27;;;10.60;;
12218;SDS011;6172;42.646;23.344;2023-12-07T07:49:25;20.23;;;11.83;;
12218;SDS011;6172;42.646;23.344;2023-12-07T07:51:52;18.00;;;11.53;;
12218;SDS011;6172;42.646;23.344;2023-12-07T07:54:19;19.53;;;11.63;;
12218;SDS011;6172;42.646;23.344;2023-12-07T07:56:46;23.83;;;12.53;;
12218;SDS011;6172;42.646;23.344;2023-12-07T07:59:13;19.53;;;11.67;;
12218;SDS011;6172;42.646;23.344;2023-12-07T08:01:41;19.53;;;11.70;;
12218;SDS011;6172;42.646;23.344;2023-12-07T08:04:09;20.87;;;11.57;;
12218;SDS011;6172;42.646;23.344;2023-12-07T08:06:38;19.27;;;11.13;;
12218;SDS011;6172;42.646;23.344;2023-12-07T08:09:05;18.60;;;11.53;;
12218;SDS011;6172;42.646;23.344;2023-12-07T08:11:34;16.30;;;9.93;;
12218;SDS011;6172;42.646;23.344;2023-12-07T08:14:01;15.30;;;8.87;;
12218;SDS011;6172;42.646;23.344;2023-12-07T08:16:30;14.30;;;9.07;;
12218;SDS011;6172;42.646;23.344;2023-12-07T08:18:57;14.60;;;7.90;;
12218;SDS011;6172;42.646;23.344;2023-12-07T08:21:24;11.73;;;7.43;;
12218;SDS011;6172;42.646;23.344;2023-12-07T08:23:53;10.87;;;7.63;;
12218;SDS011;6172;42.646;23.344;2023-12-07T08:26:20;11.03;;;7.57;;
12218;SDS011;6172;42.646;23.344;2023-12-07T08:28:47;9.43;;;6.30;;
12218;SDS011;6172;42.646;23.344;2023-12-07T08:31:15;12.53;;;6.97;;
12218;SDS011;6172;42.646;23.344;2023-12-07T08:33:42;11.93;;;6.80;;
12218;SDS011;6172;42.646;23.344;2023-12-07T08:36:09;9.97;;;6.77;;
12218;SDS011;6172;42.646;23.344;2023-12-07T08:38:37;9.33;;;6.53;;
12218;SDS011;6172;42.646;23.344;2023-12-07T08:41:05;9.77;;;6.03;;
12218;SDS011;6172;42.646;23.344;2023-12-07T08:43:32;9.07;;;5.80;;
12218;SDS011;6172;42.646;23.344;2023-12-07T08:45:59;9.90;;;5.83;;
12218;SDS011;6172;42.646;23.344;2023-12-07T08:48:26;7.37;;;5.43;;
12218;SDS011;6172;42.646;23.344;2023-12-07T08:50:53;6.23;;;4.20;;
12218;SDS011;6172;42.646;23.344;2023-12-07T08:53:20;5.00;;;4.03;;
12218;SDS011;6172;42.646;23.344;2023-12-07T08:55:46;6.00;;;4.07;;
12218;SDS011;6172;42.646;23.344;2023-12-07T08:58:15;7.50;;;4.10;;
12218;SDS011;6172;42.646;23.344;2023-12-07T09:00:42;6.17;;;3.87;;
12218;SDS011;6172;42.646;23.344;2023-12-07T09:03:09;4.13;;;2.97;;
12218;SDS011;6172;42.646;23.344;2023-12-07T09:05:36;3.73;;;2.73;;
12218;SDS011;6172;42.646;23.344;2023-12-07T09:08:03;4.17;;;2.90;;
12218;SDS011;6172;42.646;23.344;2023-12-07T09:10:31;2.50;;;2.20;;
12218;SDS011;6172;42.646;23.344;2023-12-07T09:12:58;2.30;;;2.10;;
12218;SDS011;6172;42.646;23.344;2023-12-07T09:15:27;2.63;;;1.90;;
12218;SDS011;6172;42.646;23.344;2023-12-07T09:17:54;2.47;;;2.20;;
12218;SDS011;6172;42.646;23.344;2023-12-07T09:20:21;3.83;;;2.37;;
12218;SDS011;6172;42.646;23.344;2023-12-07T09:22:49;2.60;;;2.00;;
12218;SDS011;6172;42.646;23.344;2023-12-07T09:25:17;3.50;;;1.93;;
12218;SDS011;6172;42.646;23.344;2023-12-07T09:27:44;2.57;;;2.37;;
12218;SDS011;6172;42.646;23.344;2023-12-07T09:30:13;2.37;;;1.93;;
12218;SDS011;6172;42.646;23.344;2023-12-07T09:32:41;4.33;;;1.83;;
12218;SDS011;6172;42.646;23.344;2023-12-07T09:35:09;2.17;;;1.67;;
12218;SDS011;6172;42.646;23.344;2023-12-07T09:37:40;2.60;;;1.83;;
12218;SDS011;6172;42.646;23.344;2023-12-07T09:40:07;3.33;;;1.73;;
12218;SDS011;6172;42.646;23.344;2023-12-07T09:42:35;2.93;;;2.03;;
12218;SDS011;6172;42.646;23.344;2023-12-07T09:45:02;2.47;;;1.30;;
12218;SDS011;6172;42.646;23.344;2023-12-07T09:47:29;2.47;;;1.67;;
12218;SDS011;6172;42.646;23.344;2023-12-07T09:50:00;2.33;;;2.00;;
12218;SDS011;6172;42.646;23.344;2023-12-07T09:52:29;1.17;;;1.10;;
12218;SDS011;6172;42.646;23.344;2023-12-07T09:54:58;3.30;;;1.90;;
12218;SDS011;6172;42.646;23.344;2023-12-07T09:57:28;3.07;;;1.57;;
12218;SDS011;6172;42.646;23.344;2023-12-07T09:59:55;1.30;;;1.20;;
12218;SDS011;6172;42.646;23.344;2023-12-07T10:02:23;0.80;;;0.63;;
12218;SDS011;6172;42.646;23.344;2023-12-07T10:05:04;2.87;;;1.30;;
12218;SDS011;6172;42.646;23.344;2023-12-07T10:07:32;1.40;;;1.30;;
12218;SDS011;6172;42.646;23.344;2023-12-07T10:10:02;1.07;;;0.97;;
12218;SDS011;6172;42.646;23.344;2023-12-07T10:12:30;2.40;;;1.00;;
12218;SDS011;6172;42.646;23.344;2023-12-07T10:14:59;1.43;;;1.00;;
12218;SDS011;6172;42.646;23.344;2023-12-07T10:17:42;1.27;;;1.07;;
12218;SDS011;6172;42.646;23.344;2023-12-07T10:20:13;2.00;;;0.90;;
12218;SDS011;6172;42.646;23.344;2023-12-07T10:22:41;0.60;;;0.60;;
12218;SDS011;6172;42.646;23.344;2023-12-07T10:25:09;1.50;;;0.67;;
12218;SDS011;6172;42.646;23.344;2023-12-07T10:27:37;1.87;;;1.00;;
12218;SDS011;6172;42.646;23.344;2023-12-07T10:30:08;1.93;;;1.00;;
12218;SDS011;6172;42.646;23.344;2023-12-07T10:32:37;3.27;;;0.83;;
12218;SDS011;6172;42.646;23.344;2023-12-07T10:35:08;0.80;;;0.70;;
12218;SDS011;6172;42.646;23.344;2023-12-07T10:37:37;0.60;;;0.60;;
12218;SDS011;6172;42.646;23.344;2023-12-07T10:40:04;1.13;;;0.53;;
12218;SDS011;6172;42.646;23.344;2023-12-07T10:42:33;0.93;;;0.70;;
12218;SDS011;6172;42.646;23.344;2023-12-07T10:45:03;1.10;;;0.70;;
12218;SDS011;6172;42.646;23.344;2023-12-07T10:47:33;0.57;;;0.50;;
12218;SDS011;6172;42.646;23.344;2023-12-07T10:50:03;0.83;;;0.50;;
12218;SDS011;6172;42.646;23.344;2023-12-07T10:52:39;1.33;;;0.70;;
12218;SDS011;6172;42.646;23.344;2023-12-07T10:55:12;0.87;;;0.60;;
12218;SDS011;6172;42.646;23.344;2023-12-07T10:57:43;0.80;;;0.50;;
12218;SDS011;6172;42.646;23.344;2023-12-07T11:00:12;0.63;;;0.57;;
12218;SDS011;6172;42.646;23.344;2023-12-07T11:02:41;0.60;;;0.50;;
12218;SDS011;6172;42.646;23.344;2023-12-07T11:05:10;0.80;;;0.50;;
12218;SDS011;6172;42.646;23.344;2023-12-07T11:07:42;2.33;;;1.73;;
12218;SDS011;6172;42.646;23.344;2023-12-07T11:10:18;0.93;;;0.60;;
12218;SDS011;6172;42.646;23.344;2023-12-07T11:12:53;0.57;;;0.50;;
12218;SDS011;6172;42.646;23.344;2023-12-07T11:15:25;1.57;;;0.70;;
12218;SDS011;6172;42.646;23.344;2023-12-07T11:17:54;1.03;;;0.90;;
12218;SDS011;6172;42.646;23.344;2023-12-07T11:20:22;0.70;;;0.70;;
12218;SDS011;6172;42.646;23.344;2023-12-07T11:23:00;0.80;;;0.60;;
12218;SDS011;6172;42.646;23.344;2023-12-07T11:25:31;0.80;;;0.63;;
12218;SDS011;6172;42.646;23.344;2023-12-07T11:28:01;1.03;;;0.50;;
12218;SDS011;6172;42.646;23.344;2023-12-07T11:30:30;1.03;;;0.60;;
12218;SDS011;6172;42.646;23.344;2023-12-07T11:32:59;0.73;;;0.60;;
12218;SDS011;6172;42.646;23.344;2023-12-07T11:35:26;1.30;;;0.90;;
12218;SDS011;6172;42.646;23.344;2023-12-07T11:38:04;1.10;;;0.90;;
12218;SDS011;6172;42.646;23.344;2023-12-07T11:40:35;2.60;;;0.80;;
12218;SDS011;6172;42.646;23.344;2023-12-07T11:43:03;0.60;;;0.60;;
12218;SDS011;6172;42.646;23.344;2023-12-07T11:45:36;1.43;;;1.00;;
12218;SDS011;6172;42.646;23.344;2023-12-07T11:48:08;1.67;;;0.80;;
12218;SDS011;6172;42.646;23.344;2023-12-07T11:50:36;1.23;;;0.90;;
12218;SDS011;6172;42.646;23.344;2023-12-07T11:53:24;2.00;;;0.80;;
12218;SDS011;6172;42.646;23.344;2023-12-07T11:55:51;0.87;;;0.80;;
12218;SDS011;6172;42.646;23.344;2023-12-07T11:58:19;0.87;;;0.70;;
12218;SDS011;6172;42.646;23.344;2023-12-07T12:00:47;0.50;;;0.50;;
12218;SDS011;6172;42.646;23.344;2023-12-07T12:03:14;1.20;;;0.60;;
12218;SDS011;6172;42.646;23.344;2023-12-07T12:05:41;1.37;;;1.10;;
12218;SDS011;6172;42.646;23.344;2023-12-07T12:08:09;0.93;;;0.57;;
12218;SDS011;6172;42.646;23.344;2023-12-07T12:10:41;1.70;;;0.90;;
12218;SDS011;6172;42.646;23.344;2023-12-07T12:13:08;1.27;;;0.60;;
12218;SDS011;6172;42.646;23.344;2023-12-07T12:15:37;0.53;;;0.50;;
12218;SDS011;6172;42.646;23.344;2023-12-07T12:18:05;0.80;;;0.80;;
12218;SDS011;6172;42.646;23.344;2023-12-07T12:20:33;0.43;;;0.40;;
12218;SDS011;6172;42.646;23.344;2023-12-07T12:23:00;0.63;;;0.60;;
12218;SDS011;6172;42.646;23.344;2023-12-07T12:25:28;1.00;;;0.90;;
12218;SDS011;6172;42.646;23.344;2023-12-07T12:27:58;0.93;;;0.70;;
12218;SDS011;6172;42.646;23.344;2023-12-07T12:30:29;1.07;;;0.87;;
12218;SDS011;6172;42.646;23.344;2023-12-07T12:32:56;1.60;;;1.03;;
12218;SDS011;6172;42.646;23.344;2023-12-07T12:35:25;1.00;;;0.80;;
12218;SDS011;6172;42.646;23.344;2023-12-07T12:37:52;2.93;;;1.00;;
12218;SDS011;6172;42.646;23.344;2023-12-07T12:40:21;1.13;;;1.03;;
12218;SDS011;6172;42.646;23.344;2023-12-07T12:42:49;1.50;;;0.97;;
12218;SDS011;6172;42.646;23.344;2023-12-07T12:45:19;0.90;;;0.63;;
12218;SDS011;6172;42.646;23.344;2023-12-07T12:47:47;1.13;;;0.97;;
12218;SDS011;6172;42.646;23.344;2023-12-07T12:53:02;1.33;;;0.90;;
12218;SDS011;6172;42.646;23.344;2023-12-07T12:55:30;0.83;;;0.80;;
12218;SDS011;6172;42.646;23.344;2023-12-07T12:57:57;1.43;;;1.07;;
12218;SDS011;6172;42.646;23.344;2023-12-07T13:00:26;1.37;;;1.00;;
12218;SDS011;6172;42.646;23.344;2023-12-07T13:02:54;0.77;;;0.77;;
12218;SDS011;6172;42.646;23.344;2023-12-07T13:05:21;1.30;;;1.20;;
12218;SDS011;6172;42.646;23.344;2023-12-07T13:07:49;1.17;;;1.07;;
12218;SDS011;6172;42.646;23.344;2023-12-07T13:10:16;1.03;;;1.03;;
12218;SDS011;6172;42.646;23.344;2023-12-07T13:12:44;1.30;;;1.20;;
12218;SDS011;6172;42.646;23.344;2023-12-07T13:15:12;1.70;;;1.30;;
12218;SDS011;6172;42.646;23.344;2023-12-07T13:17:40;1.30;;;1.20;;
12218;SDS011;6172;42.646;23.344;2023-12-07T13:20:09;1.73;;;1.60;;
12218;SDS011;6172;42.646;23.344;2023-12-07T13:22:38;4.00;;;1.60;;
12218;SDS011;6172;42.646;23.344;2023-12-07T13:25:06;2.33;;;1.87;;
12218;SDS011;6172;42.646;23.344;2023-12-07T13:27:33;1.67;;;1.57;;
12218;SDS011;6172;42.646;23.344;2023-12-07T13:30:00;1.60;;;1.50;;
12218;SDS011;6172;42.646;23.344;2023-12-07T13:32:30;2.20;;;2.00;;
12218;SDS011;6172;42.646;23.344;2023-12-07T13:35:00;1.87;;;1.77;;
12218;SDS011;6172;42.646;23.344;2023-12-07T13:37:28;2.23;;;1.67;;
12218;SDS011;6172;42.646;23.344;2023-12-07T13:39:55;2.10;;;1.90;;
12218;SDS011;6172;42.646;23.344;2023-12-07T13:42:23;2.10;;;1.87;;
12218;SDS011;6172;42.646;23.344;2023-12-07T13:44:52;2.37;;;1.93;;
12218;SDS011;6172;42.646;23.344;2023-12-07T13:47:21;3.27;;;2.07;;
12218;SDS011;6172;42.646;23.344;2023-12-07T13:49:52;2.37;;;2.17;;
12218;SDS011;6172;42.646;23.344;2023-12-07T13:52:22;2.73;;;2.17;;
12218;SDS011;6172;42.646;23.344;2023-12-07T13:54:49;2.07;;;1.87;;
12218;SDS011;6172;42.646;23.344;2023-12-07T13:57:16;2.50;;;2.30;;
12218;SDS011;6172;42.646;23.344;2023-12-07T13:59:43;2.67;;;2.40;;
12218;SDS011;6172;42.646;23.344;2023-12-07T14:02:11;2.60;;;2.07;;
12218;SDS011;6172;42.646;23.344;2023-12-07T14:04:38;2.30;;;2.10;;
12218;SDS011;6172;42.646;23.344;2023-12-07T14:07:09;2.23;;;2.03;;
12218;SDS011;6172;42.646;23.344;2023-12-07T14:09:39;3.03;;;2.30;;
12218;SDS011;6172;42.646;23.344;2023-12-07T14:12:08;2.50;;;2.30;;
12218;SDS011;6172;42.646;23.344;2023-12-07T14:14:40;3.33;;;2.67;;
12218;SDS011;6172;42.646;23.344;2023-12-07T14:17:21;5.57;;;3.10;;
12218;SDS011;6172;42.646;23.344;2023-12-07T14:19:48;3.33;;;2.93;;
12218;SDS011;6172;42.646;23.344;2023-12-07T14:22:15;3.13;;;2.83;;
12218;SDS011;6172;42.646;23.344;2023-12-07T14:24:44;3.23;;;2.83;;
12218;SDS011;6172;42.646;23.344;2023-12-07T14:27:13;3.60;;;3.00;;
12218;SDS011;6172;42.646;23.344;2023-12-07T14:29:53;3.63;;;2.60;;
12218;SDS011;6172;42.646;23.344;2023-12-07T14:32:21;3.30;;;2.63;;
12218;SDS011;6172;42.646;23.344;2023-12-07T14:34:48;3.07;;;2.87;;
12218;SDS011;6172;42.646;23.344;2023-12-07T14:37:16;3.23;;;2.93;;
12218;SDS011;6172;42.646;23.344;2023-12-07T14:39:44;3.73;;;2.90;;
12218;SDS011;6172;42.646;23.344;2023-12-07T14:42:11;4.00;;;3.27;;
12218;SDS011;6172;42.646;23.344;2023-12-07T14:44:38;3.87;;;3.30;;
12218;SDS011;6172;42.646;23.344;2023-12-07T14:47:05;4.60;;;3.67;;